sensor_id;sensor_type;location;lat;lon;timestamp;P1;durP1;ratioP1;P2;durP2;ratioP2
68247;SDS011;55064;49.636;12.164;2023-12-28T00:00:58;16.45;;;6.28;;
68247;SDS011;55064;49.636;12.164;2023-12-28T00:03:23;15.43;;;6.80;;
68247;SDS011;55064;49.636;12.164;2023-12-28T00:05:48;13.20;;;5.40;;
68247;SDS011;55064;49.636;12.164;2023-12-28T00:08:14;13.63;;;3.93;;
68247;SDS011;55064;49.636;12.164;2023-12-28T00:10:39;11.52;;;3.75;;
68247;SDS011;55064;49.636;12.164;2023-12-28T00:13:04;9.47;;;3.40;;
68247;SDS011;55064;49.636;12.164;2023-12-28T00:15:30;8.30;;;2.90;;
68247;SDS011;55064;49.636;12.164;2023-12-28T00:17:55;8.20;;;3.27;;
68247;SDS011;55064;49.636;12.164;2023-12-28T00:20:21;10.90;;;3.17;;
68247;SDS011;55064;49.636;12.164;2023-12-28T00:22:46;7.32;;;2.78;;
68247;SDS011;55064;49.636;12.164;2023-12-28T00:25:11;10.03;;;3.13;;
68247;SDS011;55064;49.636;12.164;2023-12-28T00:27:37;12.40;;;2.97;;
68247;SDS011;55064;49.636;12.164;2023-12-28T00:30:03;9.60;;;3.10;;
68247;SDS011;55064;49.636;12.164;2023-12-28T00:32:30;7.50;;;2.80;;
68247;SDS011;55064;49.636;12.164;2023-12-28T00:34:55;8.50;;;3.20;;
68247;SDS011;55064;49.636;12.164;2023-12-28T00:37:21;8.63;;;3.50;;
68247;SDS011;55064;49.636;12.164;2023-12-28T00:39:46;11.10;;;3.50;;
68247;SDS011;55064;49.636;12.164;2023-12-28T00:42:12;9.80;;;3.60;;
68247;SDS011;55064;49.636;12.164;2023-12-28T00:44:37;10.27;;;3.63;;
68247;SDS011;55064;49.636;12.164;2023-12-28T00:47:03;8.83;;;2.63;;
68247;SDS011;55064;49.636;12.164;2023-12-28T00:49:29;7.82;;;2.60;;
68247;SDS011;55064;49.636;12.164;2023-12-28T00:51:54;8.80;;;3.00;;
68247;SDS011;55064;49.636;12.164;2023-12-28T00:54:19;8.17;;;3.03;;
68247;SDS011;55064;49.636;12.164;2023-12-28T00:56:45;6.77;;;2.80;;
68247;SDS011;55064;49.636;12.164;2023-12-28T00:59:10;9.70;;;2.93;;
68247;SDS011;55064;49.636;12.164;2023-12-28T01:01:35;8.60;;;3.20;;
68247;SDS011;55064;49.636;12.164;2023-12-28T01:04:01;7.80;;;2.73;;
68247;SDS011;55064;49.636;12.164;2023-12-28T01:06:26;9.40;;;3.25;;
68247;SDS011;55064;49.636;12.164;2023-12-28T01:08:56;8.27;;;3.43;;
68247;SDS011;55064;49.636;12.164;2023-12-28T01:11:22;8.70;;;3.35;;
68247;SDS011;55064;49.636;12.164;2023-12-28T01:13:47;9.27;;;3.40;;
68247;SDS011;55064;49.636;12.164;2023-12-28T01:16:13;9.23;;;3.50;;
68247;SDS011;55064;49.636;12.164;2023-12-28T01:18:38;8.77;;;3.00;;
68247;SDS011;55064;49.636;12.164;2023-12-28T01:21:04;8.48;;;2.80;;
68247;SDS011;55064;49.636;12.164;2023-12-28T01:23:30;9.32;;;3.40;;
68247;SDS011;55064;49.636;12.164;2023-12-28T01:25:56;7.80;;;3.20;;
68247;SDS011;55064;49.636;12.164;2023-12-28T01:28:21;9.40;;;3.40;;
68247;SDS011;55064;49.636;12.164;2023-12-28T01:30:47;6.97;;;2.73;;
68247;SDS011;55064;49.636;12.164;2023-12-28T01:33:12;8.73;;;3.60;;
68247;SDS011;55064;49.636;12.164;2023-12-28T01:35:37;9.23;;;3.40;;
68247;SDS011;55064;49.636;12.164;2023-12-28T01:38:03;7.87;;;3.30;;
68247;SDS011;55064;49.636;12.164;2023-12-28T01:40:28;9.23;;;3.70;;
68247;SDS011;55064;49.636;12.164;2023-12-28T01:42:54;8.90;;;3.45;;
68247;SDS011;55064;49.636;12.164;2023-12-28T01:45:19;10.07;;;3.40;;
68247;SDS011;55064;49.636;12.164;2023-12-28T01:47:44;8.13;;;3.20;;
68247;SDS011;55064;49.636;12.164;2023-12-28T01:50:12;10.70;;;3.30;;
68247;SDS011;55064;49.636;12.164;2023-12-28T01:52:37;7.53;;;3.37;;
68247;SDS011;55064;49.636;12.164;2023-12-28T01:55:03;10.52;;;3.30;;
68247;SDS011;55064;49.636;12.164;2023-12-28T01:57:29;12.00;;;3.00;;
68247;SDS011;55064;49.636;12.164;2023-12-28T01:59:55;7.93;;;2.92;;
68247;SDS011;55064;49.636;12.164;2023-12-28T02:02:21;8.43;;;3.40;;
68247;SDS011;55064;49.636;12.164;2023-12-28T02:04:47;8.93;;;3.20;;
68247;SDS011;55064;49.636;12.164;2023-12-28T02:07:13;8.00;;;2.97;;
68247;SDS011;55064;49.636;12.164;2023-12-28T02:09:40;7.78;;;3.25;;
68247;SDS011;55064;49.636;12.164;2023-12-28T02:12:05;8.97;;;3.37;;
68247;SDS011;55064;49.636;12.164;2023-12-28T02:14:32;7.85;;;3.42;;
68247;SDS011;55064;49.636;12.164;2023-12-28T02:17:03;9.20;;;3.60;;
68247;SDS011;55064;49.636;12.164;2023-12-28T02:22:17;9.68;;;3.20;;
68247;SDS011;55064;49.636;12.164;2023-12-28T02:27:27;8.68;;;3.20;;
68247;SDS011;55064;49.636;12.164;2023-12-28T02:29:52;7.95;;;3.25;;
68247;SDS011;55064;49.636;12.164;2023-12-28T02:32:20;8.27;;;3.40;;
68247;SDS011;55064;49.636;12.164;2023-12-28T02:34:54;12.38;;;3.45;;
68247;SDS011;55064;49.636;12.164;2023-12-28T02:37:24;10.23;;;3.30;;
68247;SDS011;55064;49.636;12.164;2023-12-28T02:39:51;11.43;;;4.00;;
68247;SDS011;55064;49.636;12.164;2023-12-28T02:42:18;9.05;;;3.47;;
68247;SDS011;55064;49.636;12.164;2023-12-28T02:44:44;9.30;;;3.73;;
68247;SDS011;55064;49.636;12.164;2023-12-28T02:47:09;10.88;;;3.60;;
68247;SDS011;55064;49.636;12.164;2023-12-28T02:49:35;7.97;;;3.40;;
68247;SDS011;55064;49.636;12.164;2023-12-28T02:52:00;9.70;;;3.87;;
68247;SDS011;55064;49.636;12.164;2023-12-28T02:54:25;10.43;;;4.57;;
68247;SDS011;55064;49.636;12.164;2023-12-28T02:56:51;12.20;;;4.37;;
68247;SDS011;55064;49.636;12.164;2023-12-28T02:59:16;8.80;;;3.90;;
68247;SDS011;55064;49.636;12.164;2023-12-28T03:01:41;8.87;;;3.60;;
68247;SDS011;55064;49.636;12.164;2023-12-28T03:04:07;8.73;;;3.67;;
68247;SDS011;55064;49.636;12.164;2023-12-28T03:06:34;11.93;;;3.60;;
68247;SDS011;55064;49.636;12.164;2023-12-28T03:09:00;8.10;;;3.67;;
68247;SDS011;55064;49.636;12.164;2023-12-28T03:11:25;8.37;;;3.20;;
68247;SDS011;55064;49.636;12.164;2023-12-28T03:13:51;10.40;;;3.87;;
68247;SDS011;55064;49.636;12.164;2023-12-28T03:16:16;8.23;;;2.92;;
68247;SDS011;55064;49.636;12.164;2023-12-28T03:18:42;7.73;;;3.10;;
68247;SDS011;55064;49.636;12.164;2023-12-28T03:21:07;8.50;;;3.63;;
68247;SDS011;55064;49.636;12.164;2023-12-28T03:23:32;7.87;;;3.10;;
68247;SDS011;55064;49.636;12.164;2023-12-28T03:25:58;9.57;;;3.90;;
68247;SDS011;55064;49.636;12.164;2023-12-28T03:28:25;9.15;;;3.63;;
68247;SDS011;55064;49.636;12.164;2023-12-28T03:30:51;9.57;;;3.87;;
68247;SDS011;55064;49.636;12.164;2023-12-28T03:33:16;8.87;;;3.77;;
68247;SDS011;55064;49.636;12.164;2023-12-28T03:35:41;10.45;;;3.40;;
68247;SDS011;55064;49.636;12.164;2023-12-28T03:38:07;8.87;;;3.73;;
68247;SDS011;55064;49.636;12.164;2023-12-28T03:40:32;10.37;;;3.60;;
68247;SDS011;55064;49.636;12.164;2023-12-28T03:42:57;8.93;;;3.50;;
68247;SDS011;55064;49.636;12.164;2023-12-28T03:45:23;9.10;;;3.50;;
68247;SDS011;55064;49.636;12.164;2023-12-28T03:47:48;9.13;;;3.37;;
68247;SDS011;55064;49.636;12.164;2023-12-28T03:50:13;9.27;;;3.60;;
68247;SDS011;55064;49.636;12.164;2023-12-28T03:52:39;9.73;;;3.70;;
68247;SDS011;55064;49.636;12.164;2023-12-28T03:55:04;7.82;;;3.33;;
68247;SDS011;55064;49.636;12.164;2023-12-28T03:57:30;8.40;;;3.43;;
68247;SDS011;55064;49.636;12.164;2023-12-28T03:59:55;8.07;;;3.40;;
68247;SDS011;55064;49.636;12.164;2023-12-28T04:02:21;9.43;;;3.58;;
68247;SDS011;55064;49.636;12.164;2023-12-28T04:04:47;10.97;;;3.80;;
68247;SDS011;55064;49.636;12.164;2023-12-28T04:07:13;9.48;;;3.80;;
68247;SDS011;55064;49.636;12.164;2023-12-28T04:09:38;10.47;;;3.80;;
68247;SDS011;55064;49.636;12.164;2023-12-28T04:12:03;9.57;;;4.00;;
68247;SDS011;55064;49.636;12.164;2023-12-28T04:14:29;12.80;;;4.57;;
68247;SDS011;55064;49.636;12.164;2023-12-28T04:16:54;10.50;;;4.40;;
68247;SDS011;55064;49.636;12.164;2023-12-28T04:19:19;11.67;;;4.13;;
68247;SDS011;55064;49.636;12.164;2023-12-28T04:21:45;8.87;;;3.57;;
68247;SDS011;55064;49.636;12.164;2023-12-28T04:24:10;9.77;;;3.90;;
68247;SDS011;55064;49.636;12.164;2023-12-28T04:26:36;9.17;;;4.00;;
68247;SDS011;55064;49.636;12.164;2023-12-28T04:29:01;10.63;;;3.85;;
68247;SDS011;55064;49.636;12.164;2023-12-28T04:31:27;9.53;;;3.87;;
68247;SDS011;55064;49.636;12.164;2023-12-28T04:33:52;11.07;;;3.77;;
68247;SDS011;55064;49.636;12.164;2023-12-28T04:36:18;10.20;;;3.50;;
68247;SDS011;55064;49.636;12.164;2023-12-28T04:38:43;9.93;;;3.63;;
68247;SDS011;55064;49.636;12.164;2023-12-28T04:41:09;9.83;;;3.70;;
68247;SDS011;55064;49.636;12.164;2023-12-28T04:43:35;8.70;;;3.30;;
68247;SDS011;55064;49.636;12.164;2023-12-28T04:46:03;9.53;;;3.73;;
68247;SDS011;55064;49.636;12.164;2023-12-28T04:48:29;10.43;;;4.10;;
68247;SDS011;55064;49.636;12.164;2023-12-28T04:50:54;9.03;;;3.67;;
68247;SDS011;55064;49.636;12.164;2023-12-28T04:53:20;10.17;;;3.60;;
68247;SDS011;55064;49.636;12.164;2023-12-28T04:55:45;10.10;;;4.00;;
68247;SDS011;55064;49.636;12.164;2023-12-28T04:58:10;10.10;;;4.40;;
68247;SDS011;55064;49.636;12.164;2023-12-28T05:00:37;11.27;;;4.75;;
68247;SDS011;55064;49.636;12.164;2023-12-28T05:03:02;12.13;;;4.90;;
68247;SDS011;55064;49.636;12.164;2023-12-28T05:05:27;11.68;;;4.88;;
68247;SDS011;55064;49.636;12.164;2023-12-28T05:07:53;11.43;;;4.30;;
68247;SDS011;55064;49.636;12.164;2023-12-28T05:10:18;12.33;;;5.37;;
68247;SDS011;55064;49.636;12.164;2023-12-28T05:12:43;10.47;;;4.30;;
68247;SDS011;55064;49.636;12.164;2023-12-28T05:15:09;9.97;;;3.73;;
68247;SDS011;55064;49.636;12.164;2023-12-28T05:17:34;9.17;;;3.23;;
68247;SDS011;55064;49.636;12.164;2023-12-28T05:20:00;11.47;;;4.63;;
68247;SDS011;55064;49.636;12.164;2023-12-28T05:22:25;11.47;;;4.83;;
68247;SDS011;55064;49.636;12.164;2023-12-28T05:24:50;11.07;;;5.30;;
68247;SDS011;55064;49.636;12.164;2023-12-28T05:27:16;11.93;;;4.87;;
68247;SDS011;55064;49.636;12.164;2023-12-28T05:29:41;11.07;;;4.50;;
68247;SDS011;55064;49.636;12.164;2023-12-28T05:32:06;9.57;;;3.93;;
68247;SDS011;55064;49.636;12.164;2023-12-28T05:34:32;10.70;;;4.70;;
68247;SDS011;55064;49.636;12.164;2023-12-28T05:36:57;11.77;;;4.53;;
68247;SDS011;55064;49.636;12.164;2023-12-28T05:39:22;11.80;;;5.00;;
68247;SDS011;55064;49.636;12.164;2023-12-28T05:41:48;9.60;;;4.33;;
68247;SDS011;55064;49.636;12.164;2023-12-28T05:44:15;9.43;;;4.35;;
68247;SDS011;55064;49.636;12.164;2023-12-28T05:46:41;8.47;;;3.90;;
68247;SDS011;55064;49.636;12.164;2023-12-28T05:49:06;9.60;;;3.60;;
68247;SDS011;55064;49.636;12.164;2023-12-28T05:51:41;10.43;;;4.50;;
68247;SDS011;55064;49.636;12.164;2023-12-28T05:54:07;11.63;;;5.40;;
68247;SDS011;55064;49.636;12.164;2023-12-28T05:56:33;12.68;;;6.78;;
68247;SDS011;55064;49.636;12.164;2023-12-28T05:58:58;12.65;;;6.13;;
68247;SDS011;55064;49.636;12.164;2023-12-28T06:01:24;10.33;;;4.63;;
68247;SDS011;55064;49.636;12.164;2023-12-28T06:03:49;13.33;;;5.67;;
68247;SDS011;55064;49.636;12.164;2023-12-28T06:06:17;10.13;;;4.55;;
68247;SDS011;55064;49.636;12.164;2023-12-28T06:08:43;10.90;;;4.38;;
68247;SDS011;55064;49.636;12.164;2023-12-28T06:11:08;8.83;;;3.97;;
68247;SDS011;55064;49.636;12.164;2023-12-28T06:13:34;10.60;;;3.93;;
68247;SDS011;55064;49.636;12.164;2023-12-28T06:15:59;10.57;;;4.20;;
68247;SDS011;55064;49.636;12.164;2023-12-28T06:18:24;9.80;;;4.07;;
68247;SDS011;55064;49.636;12.164;2023-12-28T06:20:50;9.77;;;3.90;;
68247;SDS011;55064;49.636;12.164;2023-12-28T06:23:15;8.43;;;3.85;;
68247;SDS011;55064;49.636;12.164;2023-12-28T06:25:40;9.70;;;3.93;;
68247;SDS011;55064;49.636;12.164;2023-12-28T06:28:06;10.23;;;4.17;;
68247;SDS011;55064;49.636;12.164;2023-12-28T06:30:31;9.67;;;4.13;;
68247;SDS011;55064;49.636;12.164;2023-12-28T06:32:56;9.77;;;3.90;;
68247;SDS011;55064;49.636;12.164;2023-12-28T06:35:22;10.50;;;4.17;;
68247;SDS011;55064;49.636;12.164;2023-12-28T06:37:47;8.73;;;4.13;;
68247;SDS011;55064;49.636;12.164;2023-12-28T06:40:12;9.55;;;3.88;;
68247;SDS011;55064;49.636;12.164;2023-12-28T06:42:38;9.47;;;3.73;;
68247;SDS011;55064;49.636;12.164;2023-12-28T06:45:03;10.10;;;3.80;;
68247;SDS011;55064;49.636;12.164;2023-12-28T06:47:29;10.63;;;3.53;;
68247;SDS011;55064;49.636;12.164;2023-12-28T06:49:54;8.40;;;3.83;;
68247;SDS011;55064;49.636;12.164;2023-12-28T06:52:20;8.67;;;3.70;;
68247;SDS011;55064;49.636;12.164;2023-12-28T06:54:45;9.00;;;3.90;;
68247;SDS011;55064;49.636;12.164;2023-12-28T06:57:11;9.73;;;4.13;;
68247;SDS011;55064;49.636;12.164;2023-12-28T06:59:36;10.80;;;3.63;;
68247;SDS011;55064;49.636;12.164;2023-12-28T07:02:01;12.43;;;4.50;;
68247;SDS011;55064;49.636;12.164;2023-12-28T07:04:27;9.30;;;3.87;;
68247;SDS011;55064;49.636;12.164;2023-12-28T07:06:54;9.35;;;4.00;;
68247;SDS011;55064;49.636;12.164;2023-12-28T07:09:20;8.52;;;3.90;;
68247;SDS011;55064;49.636;12.164;2023-12-28T07:11:45;8.83;;;3.73;;
68247;SDS011;55064;49.636;12.164;2023-12-28T07:14:10;11.93;;;4.07;;
68247;SDS011;55064;49.636;12.164;2023-12-28T07:16:36;8.80;;;3.80;;
68247;SDS011;55064;49.636;12.164;2023-12-28T07:19:01;9.47;;;3.50;;
68247;SDS011;55064;49.636;12.164;2023-12-28T07:21:27;7.85;;;3.40;;
68247;SDS011;55064;49.636;12.164;2023-12-28T07:23:53;8.03;;;3.40;;
68247;SDS011;55064;49.636;12.164;2023-12-28T07:26:18;8.53;;;3.70;;
68247;SDS011;55064;49.636;12.164;2023-12-28T07:28:43;7.85;;;3.45;;
68247;SDS011;55064;49.636;12.164;2023-12-28T07:31:10;9.87;;;4.03;;
68247;SDS011;55064;49.636;12.164;2023-12-28T07:33:35;9.82;;;3.85;;
68247;SDS011;55064;49.636;12.164;2023-12-28T07:36:01;9.37;;;4.03;;
68247;SDS011;55064;49.636;12.164;2023-12-28T07:38:28;8.13;;;3.22;;
68247;SDS011;55064;49.636;12.164;2023-12-28T07:40:53;9.03;;;3.60;;
68247;SDS011;55064;49.636;12.164;2023-12-28T07:43:19;8.83;;;3.70;;
68247;SDS011;55064;49.636;12.164;2023-12-28T07:45:44;9.43;;;3.77;;
68247;SDS011;55064;49.636;12.164;2023-12-28T07:48:10;9.03;;;3.20;;
68247;SDS011;55064;49.636;12.164;2023-12-28T07:50:35;11.30;;;3.53;;
68247;SDS011;55064;49.636;12.164;2023-12-28T07:53:00;7.50;;;3.20;;
68247;SDS011;55064;49.636;12.164;2023-12-28T07:55:26;7.70;;;3.10;;
68247;SDS011;55064;49.636;12.164;2023-12-28T07:57:51;6.83;;;2.93;;
68247;SDS011;55064;49.636;12.164;2023-12-28T08:00:17;8.07;;;3.33;;
68247;SDS011;55064;49.636;12.164;2023-12-28T08:02:42;8.90;;;3.23;;
68247;SDS011;55064;49.636;12.164;2023-12-28T08:05:08;7.47;;;3.05;;
68247;SDS011;55064;49.636;12.164;2023-12-28T08:07:34;8.97;;;3.20;;
68247;SDS011;55064;49.636;12.164;2023-12-28T08:09:59;8.33;;;3.67;;
68247;SDS011;55064;49.636;12.164;2023-12-28T08:12:25;10.23;;;3.47;;
68247;SDS011;55064;49.636;12.164;2023-12-28T08:14:52;9.27;;;3.40;;
68247;SDS011;55064;49.636;12.164;2023-12-28T08:17:19;8.10;;;3.25;;
68247;SDS011;55064;49.636;12.164;2023-12-28T08:19:44;9.63;;;3.57;;
68247;SDS011;55064;49.636;12.164;2023-12-28T08:22:09;8.83;;;3.40;;
68247;SDS011;55064;49.636;12.164;2023-12-28T08:24:35;8.60;;;3.30;;
68247;SDS011;55064;49.636;12.164;2023-12-28T08:27:01;10.13;;;3.20;;
68247;SDS011;55064;49.636;12.164;2023-12-28T08:29:27;8.98;;;3.20;;
68247;SDS011;55064;49.636;12.164;2023-12-28T08:31:53;7.80;;;3.07;;
68247;SDS011;55064;49.636;12.164;2023-12-28T08:34:18;7.90;;;3.37;;
68247;SDS011;55064;49.636;12.164;2023-12-28T08:36:44;8.60;;;3.33;;
68247;SDS011;55064;49.636;12.164;2023-12-28T08:39:09;9.03;;;3.50;;
68247;SDS011;55064;49.636;12.164;2023-12-28T08:41:35;10.63;;;4.47;;
68247;SDS011;55064;49.636;12.164;2023-12-28T08:44:00;10.27;;;3.80;;
68247;SDS011;55064;49.636;12.164;2023-12-28T08:46:27;8.93;;;3.70;;
68247;SDS011;55064;49.636;12.164;2023-12-28T08:48:53;8.93;;;3.88;;
68247;SDS011;55064;49.636;12.164;2023-12-28T08:51:18;8.80;;;3.60;;
68247;SDS011;55064;49.636;12.164;2023-12-28T08:53:45;11.38;;;4.38;;
68247;SDS011;55064;49.636;12.164;2023-12-28T08:56:17;9.00;;;3.45;;
68247;SDS011;55064;49.636;12.164;2023-12-28T08:58:45;7.53;;;3.00;;
68247;SDS011;55064;49.636;12.164;2023-12-28T09:01:15;6.90;;;2.90;;
68247;SDS011;55064;49.636;12.164;2023-12-28T09:03:42;7.95;;;3.55;;
68247;SDS011;55064;49.636;12.164;2023-12-28T09:06:07;7.37;;;2.80;;
68247;SDS011;55064;49.636;12.164;2023-12-28T09:08:33;8.00;;;2.78;;
68247;SDS011;55064;49.636;12.164;2023-12-28T09:10:58;7.23;;;2.67;;
68247;SDS011;55064;49.636;12.164;2023-12-28T09:13:24;7.90;;;3.10;;
68247;SDS011;55064;49.636;12.164;2023-12-28T09:15:49;6.67;;;2.50;;
68247;SDS011;55064;49.636;12.164;2023-12-28T09:18:15;8.23;;;2.92;;
68247;SDS011;55064;49.636;12.164;2023-12-28T09:20:41;7.40;;;2.70;;
68247;SDS011;55064;49.636;12.164;2023-12-28T09:23:06;7.50;;;3.00;;
68247;SDS011;55064;49.636;12.164;2023-12-28T09:25:32;8.17;;;3.27;;
68247;SDS011;55064;49.636;12.164;2023-12-28T09:27:57;7.95;;;3.28;;
68247;SDS011;55064;49.636;12.164;2023-12-28T09:30:23;8.50;;;3.17;;
68247;SDS011;55064;49.636;12.164;2023-12-28T09:32:48;7.97;;;3.20;;
68247;SDS011;55064;49.636;12.164;2023-12-28T09:35:14;8.87;;;3.20;;
68247;SDS011;55064;49.636;12.164;2023-12-28T09:37:39;7.73;;;3.20;;
68247;SDS011;55064;49.636;12.164;2023-12-28T09:40:04;8.17;;;3.50;;
68247;SDS011;55064;49.636;12.164;2023-12-28T09:42:35;7.82;;;3.63;;
68247;SDS011;55064;49.636;12.164;2023-12-28T09:45:24;7.50;;;3.50;;
68247;SDS011;55064;49.636;12.164;2023-12-28T09:47:50;7.73;;;3.30;;
68247;SDS011;55064;49.636;12.164;2023-12-28T09:50:16;8.47;;;3.70;;
68247;SDS011;55064;49.636;12.164;2023-12-28T09:52:43;10.73;;;4.30;;
68247;SDS011;55064;49.636;12.164;2023-12-28T09:55:08;9.80;;;4.00;;
68247;SDS011;55064;49.636;12.164;2023-12-28T09:57:34;9.20;;;4.20;;
68247;SDS011;55064;49.636;12.164;2023-12-28T10:00:01;10.25;;;4.07;;
68247;SDS011;55064;49.636;12.164;2023-12-28T10:02:27;7.90;;;3.72;;
68247;SDS011;55064;49.636;12.164;2023-12-28T10:04:53;7.50;;;3.40;;
68247;SDS011;55064;49.636;12.164;2023-12-28T10:07:19;11.23;;;3.70;;
68247;SDS011;55064;49.636;12.164;2023-12-28T10:09:44;10.38;;;3.40;;
68247;SDS011;55064;49.636;12.164;2023-12-28T10:12:10;8.77;;;3.50;;
68247;SDS011;55064;49.636;12.164;2023-12-28T10:14:35;8.63;;;3.63;;
68247;SDS011;55064;49.636;12.164;2023-12-28T10:17:01;8.57;;;3.47;;
68247;SDS011;55064;49.636;12.164;2023-12-28T10:19:27;8.63;;;4.15;;
68247;SDS011;55064;49.636;12.164;2023-12-28T10:21:52;9.40;;;4.13;;
68247;SDS011;55064;49.636;12.164;2023-12-28T10:24:18;10.13;;;4.07;;
68247;SDS011;55064;49.636;12.164;2023-12-28T10:26:43;8.17;;;3.83;;
68247;SDS011;55064;49.636;12.164;2023-12-28T10:29:08;10.57;;;4.00;;
68247;SDS011;55064;49.636;12.164;2023-12-28T10:31:34;8.07;;;3.53;;
68247;SDS011;55064;49.636;12.164;2023-12-28T10:34:00;9.20;;;3.85;;
68247;SDS011;55064;49.636;12.164;2023-12-28T10:36:27;9.90;;;3.70;;
68247;SDS011;55064;49.636;12.164;2023-12-28T10:38:53;8.47;;;3.63;;
68247;SDS011;55064;49.636;12.164;2023-12-28T10:41:19;9.27;;;4.00;;
68247;SDS011;55064;49.636;12.164;2023-12-28T10:43:46;11.18;;;4.85;;
68247;SDS011;55064;49.636;12.164;2023-12-28T10:46:30;14.63;;;6.00;;
68247;SDS011;55064;49.636;12.164;2023-12-28T10:49:00;16.90;;;6.60;;
68247;SDS011;55064;49.636;12.164;2023-12-28T10:51:31;15.15;;;6.20;;
68247;SDS011;55064;49.636;12.164;2023-12-28T10:56:32;9.60;;;4.25;;
68247;SDS011;55064;49.636;12.164;2023-12-28T11:01:46;8.60;;;3.20;;
68247;SDS011;55064;49.636;12.164;2023-12-28T11:06:47;9.40;;;4.10;;
68247;SDS011;55064;49.636;12.164;2023-12-28T11:09:14;9.20;;;3.75;;
68247;SDS011;55064;49.636;12.164;2023-12-28T11:11:43;8.18;;;3.78;;
68247;SDS011;55064;49.636;12.164;2023-12-28T11:14:09;8.83;;;3.67;;
68247;SDS011;55064;49.636;12.164;2023-12-28T11:16:34;8.40;;;3.70;;
68247;SDS011;55064;49.636;12.164;2023-12-28T11:19:02;8.90;;;3.65;;
68247;SDS011;55064;49.636;12.164;2023-12-28T11:21:28;8.32;;;3.45;;
68247;SDS011;55064;49.636;12.164;2023-12-28T11:23:55;9.40;;;3.42;;
68247;SDS011;55064;49.636;12.164;2023-12-28T11:26:21;9.77;;;3.93;;
68247;SDS011;55064;49.636;12.164;2023-12-28T11:28:47;7.97;;;3.30;;
68247;SDS011;55064;49.636;12.164;2023-12-28T11:31:13;11.13;;;4.05;;
68247;SDS011;55064;49.636;12.164;2023-12-28T11:33:46;10.23;;;4.05;;
68247;SDS011;55064;49.636;12.164;2023-12-28T11:36:21;9.90;;;4.23;;
68247;SDS011;55064;49.636;12.164;2023-12-28T11:38:52;8.60;;;3.75;;
68247;SDS011;55064;49.636;12.164;2023-12-28T11:41:20;8.63;;;4.07;;
68247;SDS011;55064;49.636;12.164;2023-12-28T11:43:51;10.85;;;4.55;;
68247;SDS011;55064;49.636;12.164;2023-12-28T11:46:22;10.30;;;3.85;;
68247;SDS011;55064;49.636;12.164;2023-12-28T11:48:48;8.03;;;3.23;;
68247;SDS011;55064;49.636;12.164;2023-12-28T11:51:13;11.95;;;4.53;;
68247;SDS011;55064;49.636;12.164;2023-12-28T11:53:39;8.70;;;3.70;;
68247;SDS011;55064;49.636;12.164;2023-12-28T11:56:06;8.32;;;3.60;;
68247;SDS011;55064;49.636;12.164;2023-12-28T11:58:34;9.32;;;3.70;;
68247;SDS011;55064;49.636;12.164;2023-12-28T12:01:00;7.50;;;3.53;;
68247;SDS011;55064;49.636;12.164;2023-12-28T12:03:29;9.60;;;3.72;;
68247;SDS011;55064;49.636;12.164;2023-12-28T12:05:57;7.93;;;3.33;;
68247;SDS011;55064;49.636;12.164;2023-12-28T12:08:22;13.27;;;4.38;;
68247;SDS011;55064;49.636;12.164;2023-12-28T12:10:48;9.00;;;4.00;;
68247;SDS011;55064;49.636;12.164;2023-12-28T12:13:13;10.67;;;4.50;;
68247;SDS011;55064;49.636;12.164;2023-12-28T12:15:39;8.68;;;3.65;;
68247;SDS011;55064;49.636;12.164;2023-12-28T12:18:05;9.03;;;4.50;;
68247;SDS011;55064;49.636;12.164;2023-12-28T12:20:30;9.40;;;3.70;;
68247;SDS011;55064;49.636;12.164;2023-12-28T12:22:59;9.53;;;4.07;;
68247;SDS011;55064;49.636;12.164;2023-12-28T12:25:25;9.25;;;4.07;;
68247;SDS011;55064;49.636;12.164;2023-12-28T12:27:51;10.82;;;4.97;;
68247;SDS011;55064;49.636;12.164;2023-12-28T12:30:18;12.50;;;4.60;;
68247;SDS011;55064;49.636;12.164;2023-12-28T12:32:44;12.43;;;4.10;;
68247;SDS011;55064;49.636;12.164;2023-12-28T12:35:09;11.00;;;4.93;;
68247;SDS011;55064;49.636;12.164;2023-12-28T12:37:36;8.80;;;3.53;;
68247;SDS011;55064;49.636;12.164;2023-12-28T12:40:03;9.15;;;4.43;;
68247;SDS011;55064;49.636;12.164;2023-12-28T12:42:30;10.40;;;4.07;;
68247;SDS011;55064;49.636;12.164;2023-12-28T12:44:56;8.70;;;3.95;;
68247;SDS011;55064;49.636;12.164;2023-12-28T12:47:22;9.63;;;4.00;;
68247;SDS011;55064;49.636;12.164;2023-12-28T12:49:48;12.50;;;5.13;;
68247;SDS011;55064;49.636;12.164;2023-12-28T12:52:16;11.20;;;4.95;;
68247;SDS011;55064;49.636;12.164;2023-12-28T12:54:41;12.97;;;5.27;;
68247;SDS011;55064;49.636;12.164;2023-12-28T12:57:06;12.63;;;5.90;;
68247;SDS011;55064;49.636;12.164;2023-12-28T12:59:32;12.93;;;5.27;;
68247;SDS011;55064;49.636;12.164;2023-12-28T13:01:57;10.83;;;4.43;;
68247;SDS011;55064;49.636;12.164;2023-12-28T13:04:23;10.68;;;4.57;;
68247;SDS011;55064;49.636;12.164;2023-12-28T13:06:49;9.73;;;4.27;;
68247;SDS011;55064;49.636;12.164;2023-12-28T13:09:14;10.18;;;4.88;;
68247;SDS011;55064;49.636;12.164;2023-12-28T13:11:39;10.50;;;4.37;;
68247;SDS011;55064;49.636;12.164;2023-12-28T13:14:05;10.37;;;4.27;;
68247;SDS011;55064;49.636;12.164;2023-12-28T13:16:30;10.55;;;4.90;;
68247;SDS011;55064;49.636;12.164;2023-12-28T13:18:56;8.33;;;3.90;;
68247;SDS011;55064;49.636;12.164;2023-12-28T13:21:22;9.07;;;3.57;;
68247;SDS011;55064;49.636;12.164;2023-12-28T13:23:48;11.18;;;4.30;;
68247;SDS011;55064;49.636;12.164;2023-12-28T13:26:13;9.13;;;4.00;;
68247;SDS011;55064;49.636;12.164;2023-12-28T13:28:39;8.70;;;3.73;;
68247;SDS011;55064;49.636;12.164;2023-12-28T13:31:04;11.83;;;4.50;;
68247;SDS011;55064;49.636;12.164;2023-12-28T13:33:29;9.17;;;4.20;;
68247;SDS011;55064;49.636;12.164;2023-12-28T13:35:55;8.55;;;3.63;;
68247;SDS011;55064;49.636;12.164;2023-12-28T13:38:20;11.13;;;4.90;;
68247;SDS011;55064;49.636;12.164;2023-12-28T13:40:46;9.68;;;4.25;;
68247;SDS011;55064;49.636;12.164;2023-12-28T13:43:11;10.77;;;4.63;;
68247;SDS011;55064;49.636;12.164;2023-12-28T13:45:37;12.03;;;5.00;;
68247;SDS011;55064;49.636;12.164;2023-12-28T13:48:02;9.13;;;3.57;;
68247;SDS011;55064;49.636;12.164;2023-12-28T13:50:28;11.70;;;4.00;;
68247;SDS011;55064;49.636;12.164;2023-12-28T13:52:53;9.80;;;4.80;;
68247;SDS011;55064;49.636;12.164;2023-12-28T13:55:18;9.57;;;4.27;;
68247;SDS011;55064;49.636;12.164;2023-12-28T13:57:44;10.27;;;4.30;;
68247;SDS011;55064;49.636;12.164;2023-12-28T14:00:09;10.97;;;4.57;;
68247;SDS011;55064;49.636;12.164;2023-12-28T14:02:35;8.68;;;3.85;;
68247;SDS011;55064;49.636;12.164;2023-12-28T14:05:01;8.50;;;3.87;;
68247;SDS011;55064;49.636;12.164;2023-12-28T14:07:26;10.60;;;4.13;;
68247;SDS011;55064;49.636;12.164;2023-12-28T14:09:51;8.93;;;3.50;;
68247;SDS011;55064;49.636;12.164;2023-12-28T14:12:17;10.43;;;4.07;;
68247;SDS011;55064;49.636;12.164;2023-12-28T14:14:42;10.17;;;4.03;;
68247;SDS011;55064;49.636;12.164;2023-12-28T14:17:08;8.13;;;3.77;;
68247;SDS011;55064;49.636;12.164;2023-12-28T14:19:33;10.60;;;4.32;;
68247;SDS011;55064;49.636;12.164;2023-12-28T14:21:59;9.57;;;4.00;;
68247;SDS011;55064;49.636;12.164;2023-12-28T14:24:25;8.97;;;3.70;;
68247;SDS011;55064;49.636;12.164;2023-12-28T14:26:52;9.85;;;3.88;;
68247;SDS011;55064;49.636;12.164;2023-12-28T14:29:19;9.65;;;4.25;;
68247;SDS011;55064;49.636;12.164;2023-12-28T14:31:45;9.25;;;3.40;;
68247;SDS011;55064;49.636;12.164;2023-12-28T14:34:12;10.50;;;3.83;;
68247;SDS011;55064;49.636;12.164;2023-12-28T14:36:37;9.17;;;3.73;;